sensor_id;sensor_type;location;lat;lon;timestamp;P1;durP1;ratioP1;P2;durP2;ratioP2
17866;SDS011;9059;49.934;8.650;2023-08-12T00:02:24;3.97;;;1.92;;
17866;SDS011;9059;49.934;8.650;2023-08-12T00:12:27;6.50;;;2.45;;
17866;SDS011;9059;49.934;8.650;2023-08-12T00:22:32;4.53;;;2.10;;
17866;SDS011;9059;49.934;8.650;2023-08-12T00:32:35;4.18;;;1.80;;
17866;SDS011;9059;49.934;8.650;2023-08-12T00:42:39;3.72;;;2.00;;
17866;SDS011;9059;49.934;8.650;2023-08-12T00:52:42;3.22;;;2.10;;
17866;SDS011;9059;49.934;8.650;2023-08-12T01:02:47;5.03;;;2.25;;
17866;SDS011;9059;49.934;8.650;2023-08-12T01:12:52;6.07;;;2.40;;
17866;SDS011;9059;49.934;8.650;2023-08-12T01:23:07;7.50;;;2.00;;
17866;SDS011;9059;49.934;8.650;2023-08-12T01:33:14;5.13;;;2.20;;
17866;SDS011;9059;49.934;8.650;2023-08-12T01:43:23;5.22;;;2.65;;
17866;SDS011;9059;49.934;8.650;2023-08-12T01:53:27;7.47;;;2.30;;
17866;SDS011;9059;49.934;8.650;2023-08-12T02:03:31;12.00;;;2.40;;
17866;SDS011;9059;49.934;8.650;2023-08-12T02:13:34;5.53;;;2.63;;
17866;SDS011;9059;49.934;8.650;2023-08-12T02:23:38;6.07;;;2.50;;
17866;SDS011;9059;49.934;8.650;2023-08-12T02:33:41;6.88;;;2.60;;
17866;SDS011;9059;49.934;8.650;2023-08-12T02:43:46;9.23;;;2.50;;
17866;SDS011;9059;49.934;8.650;2023-08-12T02:53:49;5.53;;;2.25;;
17866;SDS011;9059;49.934;8.650;2023-08-12T03:03:54;6.50;;;3.53;;
17866;SDS011;9059;49.934;8.650;2023-08-12T03:13:57;9.80;;;3.60;;
17866;SDS011;9059;49.934;8.650;2023-08-12T03:24:01;7.60;;;3.40;;
17866;SDS011;9059;49.934;8.650;2023-08-12T03:34:04;6.43;;;3.88;;
17866;SDS011;9059;49.934;8.650;2023-08-12T03:44:08;8.57;;;4.47;;
17866;SDS011;9059;49.934;8.650;2023-08-12T03:54:12;8.10;;;3.88;;
17866;SDS011;9059;49.934;8.650;2023-08-12T04:04:16;8.32;;;4.60;;
17866;SDS011;9059;49.934;8.650;2023-08-12T04:14:19;7.55;;;4.47;;
17866;SDS011;9059;49.934;8.650;2023-08-12T04:24:23;9.90;;;4.47;;
17866;SDS011;9059;49.934;8.650;2023-08-12T04:34:26;7.07;;;4.70;;
17866;SDS011;9059;49.934;8.650;2023-08-12T04:44:30;8.57;;;4.60;;
17866;SDS011;9059;49.934;8.650;2023-08-12T04:54:33;8.70;;;4.50;;
17866;SDS011;9059;49.934;8.650;2023-08-12T05:04:37;6.68;;;4.80;;
17866;SDS011;9059;49.934;8.650;2023-08-12T05:14:40;8.02;;;4.18;;
17866;SDS011;9059;49.934;8.650;2023-08-12T05:24:44;7.68;;;4.22;;
17866;SDS011;9059;49.934;8.650;2023-08-12T05:34:49;10.52;;;4.25;;
17866;SDS011;9059;49.934;8.650;2023-08-12T05:44:54;10.00;;;4.50;;
17866;SDS011;9059;49.934;8.650;2023-08-12T05:54:56;9.97;;;4.87;;
17866;SDS011;9059;49.934;8.650;2023-08-12T06:05:01;7.05;;;4.15;;
17866;SDS011;9059;49.934;8.650;2023-08-12T06:15:05;10.20;;;4.82;;
17866;SDS011;9059;49.934;8.650;2023-08-12T06:25:09;12.40;;;4.88;;
17866;SDS011;9059;49.934;8.650;2023-08-12T06:35:13;16.02;;;4.47;;
17866;SDS011;9059;49.934;8.650;2023-08-12T06:45:17;8.63;;;4.50;;
17866;SDS011;9059;49.934;8.650;2023-08-12T06:55:20;8.82;;;4.07;;
17866;SDS011;9059;49.934;8.650;2023-08-12T07:05:24;8.88;;;3.47;;
17866;SDS011;9059;49.934;8.650;2023-08-12T07:15:27;11.77;;;3.92;;
17866;SDS011;9059;49.934;8.650;2023-08-12T07:25:31;6.55;;;3.70;;
17866;SDS011;9059;49.934;8.650;2023-08-12T07:35:34;6.95;;;3.88;;
17866;SDS011;9059;49.934;8.650;2023-08-12T07:45:38;6.93;;;4.28;;
17866;SDS011;9059;49.934;8.650;2023-08-12T07:55:41;7.13;;;4.15;;
17866;SDS011;9059;49.934;8.650;2023-08-12T08:05:46;12.35;;;4.72;;
17866;SDS011;9059;49.934;8.650;2023-08-12T08:15:49;7.80;;;4.65;;
17866;SDS011;9059;49.934;8.650;2023-08-12T08:25:53;9.00;;;4.82;;
17866;SDS011;9059;49.934;8.650;2023-08-12T08:35:56;7.55;;;5.15;;
17866;SDS011;9059;49.934;8.650;2023-08-12T08:46:04;8.18;;;4.97;;
17866;SDS011;9059;49.934;8.650;2023-08-12T08:56:08;10.73;;;5.60;;
17866;SDS011;9059;49.934;8.650;2023-08-12T09:06:17;8.13;;;5.03;;
17866;SDS011;9059;49.934;8.650;2023-08-12T09:16:21;9.23;;;5.25;;
17866;SDS011;9059;49.934;8.650;2023-08-12T09:26:25;11.05;;;5.90;;
17866;SDS011;9059;49.934;8.650;2023-08-12T09:36:28;15.10;;;5.63;;
17866;SDS011;9059;49.934;8.650;2023-08-12T09:46:33;10.10;;;5.57;;
17866;SDS011;9059;49.934;8.650;2023-08-12T09:56:36;8.10;;;5.07;;
17866;SDS011;9059;49.934;8.650;2023-08-12T10:06:41;7.78;;;4.60;;
17866;SDS011;9059;49.934;8.650;2023-08-12T10:16:45;9.02;;;4.80;;
17866;SDS011;9059;49.934;8.650;2023-08-12T10:26:49;8.70;;;3.97;;
17866;SDS011;9059;49.934;8.650;2023-08-12T10:36:54;9.93;;;3.90;;
17866;SDS011;9059;49.934;8.650;2023-08-12T10:47:05;7.00;;;3.60;;
17866;SDS011;9059;49.934;8.650;2023-08-12T10:57:10;4.15;;;2.17;;
17866;SDS011;9059;49.934;8.650;2023-08-12T11:07:15;5.68;;;2.05;;
17866;SDS011;9059;49.934;8.650;2023-08-12T11:17:20;5.35;;;1.75;;
17866;SDS011;9059;49.934;8.650;2023-08-12T11:27:37;4.47;;;1.50;;
17866;SDS011;9059;49.934;8.650;2023-08-12T11:37:45;2.97;;;1.30;;
17866;SDS011;9059;49.934;8.650;2023-08-12T11:47:51;3.00;;;1.42;;
17866;SDS011;9059;49.934;8.650;2023-08-12T11:57:57;4.90;;;1.58;;
17866;SDS011;9059;49.934;8.650;2023-08-12T12:08:02;11.10;;;3.10;;
17866;SDS011;9059;49.934;8.650;2023-08-12T12:18:09;6.85;;;2.00;;
17866;SDS011;9059;49.934;8.650;2023-08-12T12:28:17;5.88;;;1.42;;
17866;SDS011;9059;49.934;8.650;2023-08-12T12:38:20;5.30;;;1.50;;
17866;SDS011;9059;49.934;8.650;2023-08-12T12:48:24;3.50;;;1.23;;
17866;SDS011;9059;49.934;8.650;2023-08-12T12:58:27;2.60;;;1.20;;
17866;SDS011;9059;49.934;8.650;2023-08-12T13:08:31;5.55;;;1.08;;
17866;SDS011;9059;49.934;8.650;2023-08-12T13:18:34;1.70;;;1.08;;
17866;SDS011;9059;49.934;8.650;2023-08-12T13:28:38;2.63;;;1.60;;
17866;SDS011;9059;49.934;8.650;2023-08-12T13:38:41;2.83;;;1.13;;
17866;SDS011;9059;49.934;8.650;2023-08-12T13:48:46;5.75;;;1.60;;
17866;SDS011;9059;49.934;8.650;2023-08-12T13:58:48;1.70;;;1.25;;
17866;SDS011;9059;49.934;8.650;2023-08-12T14:08:53;3.15;;;1.27;;
17866;SDS011;9059;49.934;8.650;2023-08-12T14:18:55;1.67;;;1.30;;
17866;SDS011;9059;49.934;8.650;2023-08-12T14:29:00;3.20;;;1.10;;
17866;SDS011;9059;49.934;8.650;2023-08-12T14:39:03;2.88;;;1.45;;
17866;SDS011;9059;49.934;8.650;2023-08-12T14:49:07;3.78;;;1.35;;
17866;SDS011;9059;49.934;8.650;2023-08-12T14:59:11;2.67;;;1.30;;
17866;SDS011;9059;49.934;8.650;2023-08-12T15:09:15;2.22;;;1.08;;
17866;SDS011;9059;49.934;8.650;2023-08-12T15:19:18;3.13;;;1.67;;
17866;SDS011;9059;49.934;8.650;2023-08-12T15:29:22;2.58;;;1.13;;
17866;SDS011;9059;49.934;8.650;2023-08-12T15:39:25;3.00;;;1.80;;
17866;SDS011;9059;49.934;8.650;2023-08-12T15:49:32;3.55;;;1.52;;
17866;SDS011;9059;49.934;8.650;2023-08-12T15:59:34;1.92;;;1.30;;
17866;SDS011;9059;49.934;8.650;2023-08-12T16:09:39;8.25;;;3.50;;
17866;SDS011;9059;49.934;8.650;2023-08-12T16:19:41;3.63;;;1.95;;
17866;SDS011;9059;49.934;8.650;2023-08-12T16:29:48;2.75;;;1.60;;
17866;SDS011;9059;49.934;8.650;2023-08-12T16:39:51;2.80;;;1.70;;
17866;SDS011;9059;49.934;8.650;2023-08-12T16:49:55;6.07;;;1.90;;
17866;SDS011;9059;49.934;8.650;2023-08-12T16:59:58;4.75;;;1.90;;
17866;SDS011;9059;49.934;8.650;2023-08-12T17:10:05;3.25;;;1.70;;
17866;SDS011;9059;49.934;8.650;2023-08-12T17:20:09;4.38;;;1.77;;
17866;SDS011;9059;49.934;8.650;2023-08-12T17:30:13;3.65;;;2.20;;
17866;SDS011;9059;49.934;8.650;2023-08-12T17:40:16;6.38;;;2.47;;
17866;SDS011;9059;49.934;8.650;2023-08-12T17:50:25;6.00;;;2.53;;
17866;SDS011;9059;49.934;8.650;2023-08-12T18:00:28;6.70;;;2.50;;
17866;SDS011;9059;49.934;8.650;2023-08-12T18:10:33;6.32;;;2.42;;
17866;SDS011;9059;49.934;8.650;2023-08-12T18:20:35;4.57;;;2.42;;
17866;SDS011;9059;49.934;8.650;2023-08-12T18:30:40;3.72;;;1.85;;
17866;SDS011;9059;49.934;8.650;2023-08-12T18:40:43;1.83;;;1.38;;
17866;SDS011;9059;49.934;8.650;2023-08-12T18:50:47;3.55;;;1.35;;
17866;SDS011;9059;49.934;8.650;2023-08-12T19:00:50;2.05;;;0.98;;
17866;SDS011;9059;49.934;8.650;2023-08-12T19:10:54;5.25;;;1.63;;
17866;SDS011;9059;49.934;8.650;2023-08-12T19:20:57;3.20;;;1.52;;
17866;SDS011;9059;49.934;8.650;2023-08-12T19:31:02;3.53;;;1.40;;
17866;SDS011;9059;49.934;8.650;2023-08-12T19:41:04;1.30;;;1.10;;
17866;SDS011;9059;49.934;8.650;2023-08-12T19:51:09;3.97;;;1.65;;
17866;SDS011;9059;49.934;8.650;2023-08-12T20:01:13;2.45;;;1.50;;
17866;SDS011;9059;49.934;8.650;2023-08-12T20:11:17;2.35;;;1.10;;
17866;SDS011;9059;49.934;8.650;2023-08-12T20:21:20;4.97;;;1.38;;
17866;SDS011;9059;49.934;8.650;2023-08-12T20:31:26;4.28;;;1.42;;
17866;SDS011;9059;49.934;8.650;2023-08-12T20:41:29;2.42;;;1.35;;
17866;SDS011;9059;49.934;8.650;2023-08-12T20:51:34;3.05;;;1.38;;
17866;SDS011;9059;49.934;8.650;2023-08-12T21:01:36;2.38;;;1.15;;
17866;SDS011;9059;49.934;8.650;2023-08-12T21:11:41;2.45;;;1.40;;
17866;SDS011;9059;49.934;8.650;2023-08-12T21:21:44;3.65;;;1.35;;
17866;SDS011;9059;49.934;8.650;2023-08-12T21:31:48;2.00;;;1.23;;
17866;SDS011;9059;49.934;8.650;2023-08-12T21:41:51;2.15;;;1.30;;
17866;SDS011;9059;49.934;8.650;2023-08-12T21:51:55;3.88;;;1.42;;
17866;SDS011;9059;49.934;8.650;2023-08-12T22:02:00;3.53;;;1.50;;
17866;SDS011;9059;49.934;8.650;2023-08-12T22:12:04;4.35;;;1.17;;
17866;SDS011;9059;49.934;8.650;2023-08-12T22:22:07;4.00;;;1.48;;
17866;SDS011;9059;49.934;8.650;2023-08-12T22:32:21;2.67;;;1.38;;
17866;SDS011;9059;49.934;8.650;2023-08-12T22:42:24;2.70;;;1.35;;
17866;SDS011;9059;49.934;8.650;2023-08-12T22:52:29;3.53;;;1.40;;
17866;SDS011;9059;49.934;8.650;2023-08-12T23:02:32;2.85;;;1.45;;
17866;SDS011;9059;49.934;8.650;2023-08-12T23:12:37;3.78;;;1.38;;
17866;SDS011;9059;49.934;8.650;2023-08-12T23:22:39;1.60;;;1.25;;
17866;SDS011;9059;49.934;8.650;2023-08-12T23:32:44;4.15;;;1.60;;
17866;SDS011;9059;49.934;8.650;2023-08-12T23:42:47;3.88;;;1.17;;
17866;SDS011;9059;49.934;8.650;2023-08-12T23:52:51;5.32;;;1.35;;
